createdAt,value
2018-08-25T00:01:00.407Z,0.97
2018-08-25T00:03:31.062Z,0.80
2018-08-25T00:06:01.774Z,0.90
2018-08-25T00:08:32.444Z,0.93
2018-08-25T00:11:03.265Z,0.80
2018-08-25T00:13:34.271Z,0.67
2018-08-25T00:16:05.182Z,1.00
2018-08-25T00:18:35.836Z,0.73
2018-08-25T00:21:06.522Z,0.70
2018-08-25T00:23:37.297Z,0.70
2018-08-25T00:26:07.957Z,0.60
2018-08-25T00:28:38.507Z,1.17
2018-08-25T00:31:14.330Z,0.80
2018-08-25T00:33:45.108Z,0.77
2018-08-25T00:36:15.832Z,0.80
2018-08-25T00:38:46.889Z,0.83
2018-08-25T00:41:17.575Z,0.87
2018-08-25T00:43:48.142Z,0.70
2018-08-25T00:46:18.657Z,0.90
2018-08-25T00:48:50.090Z,0.80
2018-08-25T00:51:20.720Z,0.80
2018-08-25T00:53:52.003Z,0.90
2018-08-25T00:56:23.349Z,1.00
2018-08-25T00:58:53.882Z,1.03
2018-08-25T01:01:25.200Z,0.87
2018-08-25T01:03:55.923Z,0.80
2018-08-25T01:06:26.685Z,0.90
2018-08-25T01:08:57.213Z,0.90
2018-08-25T01:11:27.835Z,0.80
2018-08-25T01:13:58.848Z,1.10
2018-08-25T01:16:29.565Z,0.90
2018-08-25T01:19:00.318Z,0.80
2018-08-25T01:21:31.183Z,0.77
2018-08-25T01:24:01.989Z,0.97
2018-08-25T01:26:33.214Z,0.60
2018-08-25T01:29:04.107Z,0.60
2018-08-25T01:31:41.486Z,0.83
2018-08-25T01:34:12.385Z,0.90
2018-08-25T01:36:43.112Z,1.00
2018-08-25T01:39:13.680Z,0.77
2018-08-25T01:41:44.208Z,0.90
2018-08-25T01:44:14.689Z,0.70
2018-08-25T01:46:45.246Z,0.90
2018-08-25T01:49:15.746Z,0.87
2018-08-25T01:51:46.451Z,1.10
2018-08-25T01:54:17.066Z,0.97
2018-08-25T01:56:47.856Z,0.67
2018-08-25T01:59:18.452Z,0.90
2018-08-25T02:01:48.999Z,1.03
2018-08-25T02:04:19.706Z,1.17
2018-08-25T02:06:50.968Z,0.83
2018-08-25T02:09:21.652Z,1.00
2018-08-25T02:11:52.561Z,1.13
2018-08-25T02:14:23.124Z,0.93
2018-08-25T02:16:53.746Z,1.30
2018-08-25T02:19:24.277Z,1.27
2018-08-25T02:21:54.916Z,1.10
2018-08-25T02:24:25.607Z,0.97
2018-08-25T02:26:56.151Z,1.33
2018-08-25T02:29:26.876Z,1.10
2018-08-25T02:31:58.032Z,1.10
2018-08-25T02:34:28.650Z,1.00
2018-08-25T02:36:59.205Z,1.23
2018-08-25T02:39:29.750Z,1.23
2018-08-25T02:42:00.506Z,1.60
2018-08-25T02:44:31.775Z,1.60
2018-08-25T02:47:03.313Z,1.43
2018-08-25T02:49:33.984Z,1.10
2018-08-25T02:52:04.742Z,1.50
2018-08-25T02:54:35.393Z,1.10
2018-08-25T02:57:06.447Z,1.33
2018-08-25T02:59:37.041Z,1.23
2018-08-25T03:02:07.998Z,1.53
2018-08-25T03:04:38.732Z,1.10
2018-08-25T03:07:09.301Z,1.40
2018-08-25T03:09:39.933Z,1.57
2018-08-25T03:12:10.615Z,1.13
2018-08-25T03:14:40.935Z,1.30
2018-08-25T03:17:11.825Z,1.30
2018-08-25T03:19:42.425Z,2.07
2018-08-25T03:22:13.424Z,2.00
2018-08-25T03:24:44.847Z,2.10
2018-08-25T03:27:15.390Z,1.87
2018-08-25T03:29:45.858Z,1.70
2018-08-25T03:32:16.432Z,1.40
2018-08-25T03:34:46.981Z,1.30
2018-08-25T03:37:17.583Z,1.23
2018-08-25T03:39:48.326Z,1.30
2018-08-25T03:42:18.938Z,0.90
2018-08-25T03:44:49.585Z,1.10
2018-08-25T03:47:23.226Z,0.90
2018-08-25T03:49:53.766Z,1.43
2018-08-25T03:52:24.334Z,0.90
2018-08-25T03:54:55.443Z,0.70
2018-08-25T03:57:26.056Z,1.00
2018-08-25T03:59:56.725Z,0.80
2018-08-25T04:02:27.258Z,0.80
2018-08-25T04:04:58.318Z,1.30
2018-08-25T04:07:28.973Z,1.10
2018-08-25T04:09:59.706Z,0.90
2018-08-25T04:12:30.318Z,0.83
2018-08-25T04:15:00.958Z,0.90
2018-08-25T04:17:32.061Z,1.07
2018-08-25T04:20:02.449Z,1.10
2018-08-25T04:22:32.984Z,1.07
2018-08-25T04:25:04.180Z,1.20
2018-08-25T04:27:34.822Z,1.00
2018-08-25T04:30:06.101Z,1.00
2018-08-25T04:32:36.675Z,1.13
2018-08-25T04:35:07.501Z,1.00
2018-08-25T04:37:37.969Z,1.20
2018-08-25T04:40:08.941Z,1.13
2018-08-25T04:42:39.436Z,0.77
2018-08-25T04:45:09.995Z,1.00
2018-08-25T04:47:40.584Z,0.90
2018-08-25T04:50:11.228Z,0.80
2018-08-25T04:52:42.310Z,0.80
2018-08-25T04:55:12.676Z,1.00
2018-08-25T04:57:43.378Z,1.10
2018-08-25T05:00:14.116Z,1.30
2018-08-25T05:02:44.935Z,1.30
2018-08-25T05:05:15.925Z,1.43
2018-08-25T05:07:46.534Z,1.40
2018-08-25T05:10:17.200Z,1.67
2018-08-25T05:12:47.824Z,1.80
2018-08-25T05:15:18.418Z,1.30
2018-08-25T05:17:49.017Z,1.33
2018-08-25T05:20:19.889Z,1.50
2018-08-25T05:22:50.373Z,1.20
2018-08-25T05:25:21.000Z,1.10
2018-08-25T05:27:51.704Z,1.30
2018-08-25T05:30:22.293Z,1.23
2018-08-25T05:32:53.085Z,1.20
2018-08-25T05:35:23.645Z,0.93
2018-08-25T05:37:54.171Z,1.00
2018-08-25T05:40:24.673Z,0.93
2018-08-25T05:42:55.225Z,1.00
2018-08-25T05:45:25.865Z,1.10
2018-08-25T05:47:56.446Z,1.40
2018-08-25T05:50:27.080Z,1.17
2018-08-25T05:52:57.693Z,1.20
2018-08-25T05:55:28.473Z,1.57
2018-08-25T05:57:59.035Z,1.10
2018-08-25T06:00:29.555Z,1.33
2018-08-25T06:03:00.038Z,1.50
2018-08-25T06:05:30.821Z,1.43
2018-08-25T06:08:01.561Z,1.33
2018-08-25T06:10:31.982Z,1.23
2018-08-25T06:13:02.557Z,1.30
2018-08-25T06:15:33.087Z,1.50
2018-08-25T06:18:03.697Z,1.43
2018-08-25T06:20:34.534Z,1.30
2018-08-25T06:23:05.374Z,1.80
2018-08-25T06:25:36.299Z,2.00
2018-08-25T06:28:07.903Z,1.70
2018-08-25T06:30:38.530Z,1.80
2018-08-25T06:33:09.097Z,1.50
2018-08-25T06:35:39.714Z,1.40
2018-08-25T06:38:10.776Z,1.40
2018-08-25T06:40:41.451Z,1.30
2018-08-25T06:43:12.374Z,1.00
2018-08-25T06:45:43.073Z,1.27
2018-08-25T06:48:13.640Z,1.63
2018-08-25T06:50:44.198Z,1.53
2018-08-25T06:53:14.755Z,1.33
2018-08-25T06:55:45.556Z,1.57
2018-08-25T06:58:16.111Z,1.93
2018-08-25T07:00:46.683Z,2.30
2018-08-25T07:03:17.234Z,2.20
2018-08-25T07:05:47.804Z,2.10
2018-08-25T07:08:18.436Z,2.60
2018-08-25T07:10:49.199Z,2.03
2018-08-25T07:13:20.134Z,2.70
2018-08-25T07:15:50.797Z,2.20
2018-08-25T07:18:21.691Z,2.80
2018-08-25T07:20:52.509Z,3.10
2018-08-25T07:23:22.985Z,2.67
2018-08-25T07:25:53.568Z,2.83
2018-08-25T07:28:24.218Z,3.10
2018-08-25T07:30:54.816Z,2.67
2018-08-25T07:33:25.469Z,2.80
2018-08-25T07:35:55.980Z,2.77
2018-08-25T07:38:26.698Z,2.70
2018-08-25T07:40:57.769Z,2.67
2018-08-25T07:43:28.568Z,2.50
2018-08-25T07:45:59.109Z,2.20
2018-08-25T07:48:29.729Z,2.10
2018-08-25T07:51:00.620Z,2.23
2018-08-25T07:53:31.411Z,2.00
2018-08-25T07:56:02.008Z,2.00
2018-08-25T07:58:32.767Z,1.53
2018-08-25T08:01:03.593Z,1.30
2018-08-25T08:03:34.098Z,1.30
2018-08-25T08:06:04.677Z,1.40
2018-08-25T08:08:35.263Z,1.50
2018-08-25T08:11:06.192Z,1.13
2018-08-25T08:13:36.824Z,1.27
2018-08-25T08:16:08.373Z,1.17
2018-08-25T08:18:39.046Z,0.97
2018-08-25T08:21:09.579Z,1.10
2018-08-25T08:23:40.237Z,1.00
2018-08-25T08:26:10.789Z,1.10
2018-08-25T08:28:41.325Z,1.00
2018-08-25T08:31:11.884Z,0.90
2018-08-25T08:33:42.615Z,1.10
2018-08-25T08:36:13.240Z,1.00
2018-08-25T08:38:43.854Z,1.00
2018-08-25T08:41:14.828Z,1.00
2018-08-25T08:43:45.739Z,1.00
2018-08-25T08:46:20.565Z,0.80
2018-08-25T08:48:51.258Z,1.10
2018-08-25T08:51:21.860Z,0.87
2018-08-25T08:53:52.402Z,1.00
2018-08-25T08:56:23.143Z,0.93
2018-08-25T08:58:53.706Z,1.10
2018-08-25T09:01:26.028Z,0.80
2018-08-25T09:03:57.119Z,0.80
2018-08-25T09:06:27.890Z,0.70
2018-08-25T09:08:59.023Z,0.70
2018-08-25T09:11:29.921Z,0.73
2018-08-25T09:14:00.578Z,0.90
2018-08-25T09:16:31.159Z,0.90
2018-08-25T09:19:02.026Z,0.90
2018-08-25T09:21:32.634Z,0.87
2018-08-25T09:24:03.985Z,0.70
2018-08-25T09:26:34.684Z,0.53
2018-08-25T09:29:05.841Z,0.60
2018-08-25T09:31:36.747Z,0.87
2018-08-25T09:34:07.487Z,0.57
2018-08-25T09:36:38.363Z,0.77
2018-08-25T09:39:11.507Z,0.80
2018-08-25T09:41:42.164Z,0.93
2018-08-25T09:44:13.228Z,0.90
2018-08-25T09:46:44.106Z,0.90
2018-08-25T09:49:14.786Z,0.60
2018-08-25T09:51:45.602Z,0.60
2018-08-25T09:54:16.473Z,0.70
2018-08-25T09:56:47.280Z,0.97
2018-08-25T09:59:17.872Z,0.60
2018-08-25T10:02:02.091Z,0.97
2018-08-25T10:04:32.745Z,0.80
2018-08-25T10:07:03.656Z,1.20
2018-08-25T10:09:34.266Z,0.90
2018-08-25T10:12:05.471Z,0.70
2018-08-25T10:14:36.431Z,0.80
2018-08-25T10:17:07.066Z,0.90
2018-08-25T10:19:37.679Z,0.80
2018-08-25T10:22:08.236Z,0.70
2018-08-25T10:24:38.923Z,0.97
2018-08-25T10:27:09.728Z,0.77
2018-08-25T10:29:40.418Z,0.87
2018-08-25T10:32:11.370Z,0.90
2018-08-25T10:34:42.058Z,0.87
2018-08-25T10:37:12.887Z,0.80
2018-08-25T10:39:43.528Z,0.90
2018-08-25T10:42:14.346Z,1.07
2018-08-25T10:44:45.115Z,1.00
2018-08-25T10:47:15.921Z,0.90
2018-08-25T10:49:46.562Z,0.83
2018-08-25T10:52:17.288Z,1.03
2018-08-25T10:54:48.036Z,0.80
2018-08-25T10:57:18.693Z,0.80
2018-08-25T10:59:49.046Z,0.80
2018-08-25T11:02:27.969Z,0.70
2018-08-25T11:04:58.789Z,1.00
2018-08-25T11:07:29.369Z,0.90
2018-08-25T11:10:00.059Z,1.00
2018-08-25T11:12:30.711Z,0.97
2018-08-25T11:15:01.528Z,0.80
2018-08-25T11:17:32.064Z,0.77
2018-08-25T11:20:02.763Z,1.10
2018-08-25T11:22:33.399Z,0.80
2018-08-25T11:25:04.497Z,0.90
2018-08-25T11:27:35.286Z,0.70
2018-08-25T11:30:06.032Z,0.73
2018-08-25T11:32:36.749Z,0.90
2018-08-25T11:35:08.234Z,0.70
2018-08-25T11:37:38.905Z,0.77
2018-08-25T11:40:09.906Z,0.60
2018-08-25T11:42:40.711Z,1.00
2018-08-25T11:45:11.435Z,0.70
2018-08-25T11:47:42.041Z,1.27
2018-08-25T11:50:13.025Z,1.23
2018-08-25T11:52:44.875Z,0.67
2018-08-25T11:55:15.934Z,0.70
2018-08-25T11:57:46.739Z,0.83
2018-08-25T12:00:17.517Z,1.10
2018-08-25T12:02:48.206Z,0.80
2018-08-25T12:05:19.024Z,0.70
2018-08-25T12:07:51.010Z,0.87
2018-08-25T12:10:22.086Z,0.90
2018-08-25T12:12:52.890Z,1.10
2018-08-25T12:15:24.109Z,1.05
2018-08-25T12:17:55.504Z,1.10
2018-08-25T12:20:26.848Z,0.90
2018-08-25T12:22:58.597Z,1.10
2018-08-25T12:25:29.906Z,1.30
2018-08-25T12:28:01.122Z,1.20
2018-08-25T12:30:32.362Z,0.90
2018-08-25T12:33:03.757Z,1.20
2018-08-25T12:35:34.852Z,1.20
2018-08-25T12:38:06.370Z,1.22
2018-08-25T12:40:37.702Z,1.00
2018-08-25T12:43:08.561Z,1.00
2018-08-25T12:45:39.470Z,0.80
2018-08-25T12:48:10.061Z,0.90
2018-08-25T12:50:40.848Z,1.00
2018-08-25T12:53:11.836Z,1.20
2018-08-25T12:55:47.950Z,1.10
2018-08-25T12:58:19.143Z,1.00
2018-08-25T13:00:50.368Z,0.90
2018-08-25T13:03:22.293Z,1.00
2018-08-25T13:05:53.634Z,0.93
2018-08-25T13:08:24.886Z,0.88
2018-08-25T13:10:56.147Z,0.98
2018-08-25T13:13:27.291Z,1.07
2018-08-25T13:15:58.988Z,0.93
2018-08-25T13:18:30.782Z,1.00
2018-08-25T13:21:02.339Z,0.95
2018-08-25T13:23:33.841Z,1.10
2018-08-25T13:26:05.038Z,1.07
2018-08-25T13:28:36.213Z,1.45
2018-08-25T13:31:07.990Z,1.10
2018-08-25T13:33:39.312Z,1.10
2018-08-25T13:36:10.736Z,0.93
2018-08-25T13:38:41.439Z,1.20
2018-08-25T13:41:11.841Z,1.20
2018-08-25T13:43:42.502Z,1.13
2018-08-25T13:46:13.232Z,0.93
2018-08-25T13:48:44.272Z,0.80
2018-08-25T13:51:14.889Z,1.20
2018-08-25T13:53:45.606Z,1.03
2018-08-25T13:56:16.503Z,0.93
2018-08-25T13:58:47.065Z,0.80
2018-08-25T14:01:17.799Z,0.80
2018-08-25T14:03:48.360Z,1.40
2018-08-25T14:06:19.087Z,0.90
2018-08-25T14:08:49.676Z,0.97
2018-08-25T14:11:20.901Z,1.07
2018-08-25T14:13:51.696Z,0.80
2018-08-25T14:16:23.721Z,0.73
2018-08-25T14:18:54.702Z,1.10
2018-08-25T14:21:25.523Z,1.10
2018-08-25T14:23:56.456Z,1.20
2018-08-25T14:26:27.127Z,0.93
2018-08-25T14:28:57.798Z,0.90
2018-08-25T14:31:28.512Z,0.80
2018-08-25T14:33:59.306Z,0.80
2018-08-25T14:36:30.052Z,1.00
2018-08-25T14:39:00.948Z,0.83
2018-08-25T14:41:32.052Z,0.70
2018-08-25T14:44:03.223Z,0.80
2018-08-25T14:46:34.530Z,0.70
2018-08-25T14:49:05.924Z,0.50
2018-08-25T14:51:36.979Z,0.50
2018-08-25T14:54:07.690Z,1.57
2018-08-25T14:56:38.373Z,0.90
2018-08-25T14:59:09.144Z,0.83
2018-08-25T15:01:39.848Z,0.73
2018-08-25T15:04:10.489Z,0.63
2018-08-25T15:06:41.116Z,0.60
2018-08-25T15:09:13.681Z,1.20
2018-08-25T15:11:45.664Z,0.80
2018-08-25T15:14:16.330Z,0.60
2018-08-25T15:16:47.135Z,0.60
2018-08-25T15:19:19.155Z,0.77
2018-08-25T15:21:49.853Z,0.87
2018-08-25T15:24:20.927Z,1.20
2018-08-25T15:26:51.658Z,1.50
2018-08-25T15:29:22.316Z,1.00
2018-08-25T15:31:53.091Z,0.80
2018-08-25T15:34:23.756Z,0.70
2018-08-25T15:36:54.462Z,1.00
2018-08-25T15:39:25.170Z,1.10
2018-08-25T15:41:56.176Z,0.70
2018-08-25T15:44:27.197Z,0.63
2018-08-25T15:46:58.126Z,0.53
2018-08-25T15:49:29.107Z,0.90
2018-08-25T15:52:00.248Z,0.70
2018-08-25T15:54:31.129Z,0.60
2018-08-25T15:57:01.873Z,0.57
2018-08-25T15:59:39.243Z,0.50
2018-08-25T16:02:09.803Z,0.57
2018-08-25T16:04:40.671Z,0.67
2018-08-25T16:07:11.148Z,0.50
2018-08-25T16:09:43.338Z,0.70
2018-08-25T16:12:14.072Z,0.60
2018-08-25T16:14:45.008Z,0.50
2018-08-25T16:17:15.683Z,0.60
2018-08-25T16:19:46.380Z,0.60
2018-08-25T16:22:17.163Z,0.90
2018-08-25T16:24:48.193Z,1.20
2018-08-25T16:27:19.007Z,0.80
2018-08-25T16:29:49.845Z,0.87
2018-08-25T16:32:20.453Z,0.60
2018-08-25T16:34:51.241Z,0.80
2018-08-25T16:37:21.834Z,0.67
2018-08-25T16:39:52.442Z,0.63
2018-08-25T16:42:23.070Z,0.60
2018-08-25T16:44:54.033Z,0.60
2018-08-25T16:47:24.658Z,0.70
2018-08-25T16:49:55.444Z,0.70
2018-08-25T16:52:26.078Z,0.73
2018-08-25T16:54:56.770Z,0.70
2018-08-25T16:57:27.593Z,0.50
2018-08-25T16:59:58.131Z,0.50
2018-08-25T17:02:29.025Z,0.60
2018-08-25T17:04:59.651Z,0.60
2018-08-25T17:07:30.363Z,1.00
2018-08-25T17:10:01.131Z,0.70
2018-08-25T17:12:31.848Z,0.70
2018-08-25T17:15:02.923Z,0.63
2018-08-25T17:17:33.596Z,0.50
2018-08-25T17:20:04.202Z,0.80
2018-08-25T17:22:34.821Z,0.97
2018-08-25T17:25:05.600Z,0.63
2018-08-25T17:27:36.616Z,0.70
2018-08-25T17:30:07.744Z,0.60
2018-08-25T17:32:38.760Z,0.80
2018-08-25T17:35:09.420Z,0.60
2018-08-25T17:37:39.954Z,0.80
2018-08-25T17:40:10.638Z,0.90
2018-08-25T17:42:41.363Z,0.90
2018-08-25T17:45:11.923Z,0.70
2018-08-25T17:47:42.885Z,0.60
2018-08-25T17:50:13.713Z,0.50
2018-08-25T17:52:44.308Z,0.67
2018-08-25T17:55:15.294Z,0.50
2018-08-25T17:57:46.075Z,0.60
2018-08-25T18:00:16.971Z,0.87
2018-08-25T18:02:47.666Z,1.50
2018-08-25T18:05:18.176Z,1.47
2018-08-25T18:07:48.834Z,1.30
2018-08-25T18:10:19.441Z,1.37
2018-08-25T18:12:50.181Z,1.30
2018-08-25T18:15:20.791Z,0.90
2018-08-25T18:17:51.396Z,0.87
2018-08-25T18:20:25.073Z,0.63
2018-08-25T18:22:55.927Z,0.70
2018-08-25T18:25:26.608Z,0.90
2018-08-25T18:27:57.408Z,0.90
2018-08-25T18:30:28.719Z,0.70
2018-08-25T18:32:59.631Z,0.90
2018-08-25T18:35:30.998Z,0.80
2018-08-25T18:38:01.878Z,0.80
2018-08-25T18:40:32.618Z,0.60
2018-08-25T18:43:03.529Z,0.70
2018-08-25T18:45:34.080Z,0.67
2018-08-25T18:48:05.206Z,0.70
2018-08-25T18:50:36.236Z,0.90
2018-08-25T18:53:07.147Z,0.70
2018-08-25T18:55:38.093Z,0.70
2018-08-25T18:58:08.989Z,0.60
2018-08-25T19:00:40.245Z,0.83
2018-08-25T19:03:11.685Z,0.80
2018-08-25T19:05:42.812Z,0.60
2018-08-25T19:08:13.618Z,0.80
2018-08-25T19:10:44.368Z,0.70
2018-08-25T19:13:15.113Z,0.70
2018-08-25T19:15:45.837Z,0.50
2018-08-25T19:18:16.652Z,0.60
2018-08-25T19:20:48.058Z,0.67
2018-08-25T19:23:19.112Z,0.70
2018-08-25T19:25:50.147Z,0.80
2018-08-25T19:28:23.869Z,1.00
2018-08-25T19:30:54.860Z,1.00
2018-08-25T19:33:25.828Z,1.00
2018-08-25T19:36:03.773Z,0.90
2018-08-25T19:38:34.791Z,0.97
2018-08-25T19:41:06.155Z,1.00
2018-08-25T19:43:37.289Z,0.93
2018-08-25T19:46:08.787Z,1.10
2018-08-25T19:48:39.978Z,1.00
2018-08-25T19:51:11.224Z,1.03
2018-08-25T19:53:42.237Z,1.20
2018-08-25T19:56:13.185Z,1.57
2018-08-25T19:58:44.357Z,1.60
2018-08-25T20:01:15.106Z,1.43
2018-08-25T20:03:45.894Z,1.63
2018-08-25T20:06:17.216Z,1.47
2018-08-25T20:08:48.322Z,1.30
2018-08-25T20:11:18.983Z,1.23
2018-08-25T20:13:50.422Z,1.17
2018-08-25T20:16:21.178Z,0.80
2018-08-25T20:18:52.309Z,1.10
2018-08-25T20:21:23.111Z,1.00
2018-08-25T20:23:53.821Z,1.23
2018-08-25T20:26:24.596Z,1.00
2018-08-25T20:28:56.039Z,0.90
2018-08-25T20:31:26.861Z,1.10
2018-08-25T20:33:58.069Z,0.77
2018-08-25T20:36:28.727Z,0.90
2018-08-25T20:38:59.673Z,1.07
2018-08-25T20:41:30.635Z,1.00
2018-08-25T20:44:01.442Z,0.90
2018-08-25T20:46:32.026Z,1.40
2018-08-25T20:49:04.641Z,1.10
2018-08-25T20:51:36.211Z,0.93
2018-08-25T20:54:06.738Z,1.00
2018-08-25T20:56:37.323Z,0.90
2018-08-25T20:59:08.085Z,0.80
2018-08-25T21:01:39.033Z,0.90
2018-08-25T21:04:11.582Z,1.13
2018-08-25T21:06:42.232Z,0.70
2018-08-25T21:09:13.112Z,0.73
2018-08-25T21:11:43.874Z,0.60
2018-08-25T21:14:14.571Z,0.70
2018-08-25T21:16:45.335Z,0.80
2018-08-25T21:19:16.143Z,0.97
2018-08-25T21:21:47.178Z,0.70
2018-08-25T21:24:18.042Z,0.67
2018-08-25T21:26:48.616Z,0.80
2018-08-25T21:29:19.483Z,0.80
2018-08-25T21:31:50.522Z,1.00
2018-08-25T21:34:21.955Z,0.90
2018-08-25T21:36:52.694Z,0.83
2018-08-25T21:39:23.295Z,1.10
2018-08-25T21:41:53.960Z,0.97
2018-08-25T21:44:24.904Z,0.60
2018-08-25T21:46:55.657Z,0.80
2018-08-25T21:49:26.537Z,0.80
2018-08-25T21:51:57.240Z,1.30
2018-08-25T21:54:27.871Z,0.87
2018-08-25T21:56:58.930Z,0.80
2018-08-25T21:59:29.466Z,0.90
2018-08-25T22:02:00.236Z,0.70
2018-08-25T22:04:31.080Z,0.80
2018-08-25T22:07:02.072Z,0.80
2018-08-25T22:09:32.760Z,0.97
2018-08-25T22:12:03.542Z,0.87
2018-08-25T22:14:34.326Z,0.70
2018-08-25T22:17:05.028Z,1.00
2018-08-25T22:19:35.675Z,0.70
2018-08-25T22:22:06.848Z,0.90
2018-08-25T22:24:37.551Z,0.70
2018-08-25T22:27:08.161Z,0.83
2018-08-25T22:29:38.753Z,1.17
2018-08-25T22:32:09.775Z,0.80
2018-08-25T22:34:40.468Z,1.17
2018-08-25T22:37:11.981Z,0.83
2018-08-25T22:39:42.921Z,0.70
2018-08-25T22:42:13.680Z,1.07
2018-08-25T22:44:44.248Z,0.93
2018-08-25T22:47:15.123Z,0.63
2018-08-25T22:49:45.933Z,1.20
2018-08-25T22:52:20.043Z,1.00
2018-08-25T22:54:53.816Z,0.87
2018-08-25T22:57:24.507Z,1.00
2018-08-25T22:59:55.603Z,0.87
2018-08-25T23:02:30.809Z,0.90
2018-08-25T23:05:04.262Z,0.93
2018-08-25T23:07:35.270Z,1.00
2018-08-25T23:10:07.910Z,1.03
2018-08-25T23:12:38.468Z,1.10
2018-08-25T23:15:09.081Z,0.93
2018-08-25T23:17:39.593Z,1.90
2018-08-25T23:20:11.110Z,1.60
2018-08-25T23:22:42.009Z,1.40
2018-08-25T23:25:12.754Z,1.63
2018-08-25T23:27:43.563Z,1.40
2018-08-25T23:30:14.160Z,1.57
2018-08-25T23:32:45.332Z,1.20
2018-08-25T23:35:15.837Z,1.30
2018-08-25T23:37:46.396Z,1.20
2018-08-25T23:40:17.005Z,0.93
2018-08-25T23:42:47.529Z,1.17
2018-08-25T23:45:18.502Z,1.30
2018-08-25T23:47:49.434Z,1.20
2018-08-25T23:50:20.017Z,1.10
2018-08-25T23:52:50.711Z,1.10
2018-08-25T23:55:21.647Z,1.00
2018-08-25T23:57:52.394Z,1.53
